Time;durP1;ratioP1;P1;durP2;ratioP2;P2;SDS_P1;SDS_P2;PMS_P1;PMS_P2;Temp;Humidity;BMP_temperature;BMP_pressure;BME280_temperature;BME280_humidity;BME280_pressure;Samples;Min_cycle;Max_cycle;Signal;HPM_P1;HPM_P2
2021/10/13 00:00:18;;;;;;;17.57;12.80;;;;;;;8.99;100.00;94519.00;5051844;28;21008;-80
2021/10/13 00:02:46;;;;;;;16.30;12.37;;;;;;;9.03;100.00;94519.56;5052076;28;20450;-80
2021/10/13 00:05:12;;;;;;;13.47;10.67;;;;;;;8.96;100.00;94510.56;5051851;28;20456;-79
2021/10/13 00:07:41;;;;;;;15.67;10.60;;;;;;;8.98;100.00;94524.38;5052127;28;20830;-80
2021/10/13 00:10:08;;;;;;;17.43;13.10;;;;;;;9.05;100.00;94527.28;5052284;28;20460;-80
2021/10/13 00:12:35;;;;;;;18.03;12.10;;;;;;;9.07;100.00;94518.34;5051723;28;20452;-80
2021/10/13 00:15:03;;;;;;;16.80;12.97;;;;;;;9.14;100.00;94522.09;5052153;28;20445;-80
2021/10/13 00:17:30;;;;;;;19.07;13.27;;;;;;;9.21;100.00;94511.91;4968220;28;20446;-80
2021/10/13 00:19:57;;;;;;;19.40;13.20;;;;;;;9.15;100.00;94510.66;5051666;28;20477;-80
2021/10/13 00:22:24;;;;;;;13.10;11.40;;;;;;;9.11;100.00;94504.03;5051938;28;20453;-80
2021/10/13 00:24:52;;;;;;;16.47;11.07;;;;;;;9.04;100.00;94510.75;5051830;28;20449;-80
2021/10/13 00:27:19;;;;;;;18.07;13.60;;;;;;;9.06;100.00;94506.22;5051924;28;20438;-80
2021/10/13 00:29:46;;;;;;;18.87;12.03;;;;;;;9.07;100.00;94497.41;5051854;28;20957;-80
2021/10/13 00:32:13;;;;;;;15.90;12.77;;;;;;;9.07;100.00;94500.03;5051557;28;20450;-79
2021/10/13 00:34:40;;;;;;;18.73;14.00;;;;;;;9.10;100.00;94497.16;5051784;28;20929;-80
2021/10/13 00:37:07;;;;;;;17.77;13.60;;;;;;;9.13;100.00;94499.50;5051652;28;20452;-80
2021/10/13 00:39:34;;;;;;;21.27;14.53;;;;;;;9.13;100.00;94494.25;5051529;28;20492;-80
2021/10/13 06:04:02;;;;;;;19.23;13.33;;;;;;;11.65;74.61;94669.34;5053561;28;20473;-80
2021/10/13 06:06:29;;;;;;;19.93;13.57;;;;;;;11.52;72.79;94665.34;5035353;28;20583;-80
2021/10/13 06:08:56;;;;;;;19.70;13.23;;;;;;;11.57;74.08;94668.41;5054024;28;20442;-80
2021/10/13 06:11:23;;;;;;;15.20;11.70;;;;;;;11.65;74.78;94674.59;5053962;28;20450;-80
2021/10/13 06:13:52;;;;;;;17.83;13.23;;;;;;;12.03;72.53;94678.94;5054118;28;20998;-81
2021/10/13 06:16:19;;;;;;;18.77;13.63;;;;;;;12.33;72.10;94675.22;5035253;28;20442;-80
2021/10/13 06:18:48;;;;;;;16.67;12.90;;;;;;;12.40;69.24;94683.34;5053959;28;20442;-81
2021/10/13 06:21:17;;;;;;;18.90;13.90;;;;;;;12.65;69.46;94695.81;5054017;28;20489;-81
2021/10/13 06:23:44;;;;;;;17.20;12.00;;;;;;;12.70;68.37;94693.56;5053450;28;20812;-80
2021/10/13 06:26:11;;;;;;;16.90;12.30;;;;;;;12.77;67.91;94699.09;5053478;28;20453;-80
2021/10/13 06:28:38;;;;;;;15.83;13.30;;;;;;;13.11;68.07;94701.06;5053501;28;20438;-80
2021/10/13 06:31:04;;;;;;;21.50;15.23;;;;;;;13.15;66.62;94697.16;5053500;28;20457;-81
2021/10/13 06:33:32;;;;;;;21.37;16.90;;;;;;;13.04;67.66;94703.50;5053666;28;20446;-81
2021/10/13 06:35:59;;;;;;;21.17;16.50;;;;;;;12.90;68.57;94699.53;5053379;28;20442;-81
2021/10/13 06:38:28;;;;;;;27.37;18.27;;;;;;;12.82;68.94;94704.72;5053269;28;20525;-80
2021/10/13 06:40:54;;;;;;;21.27;13.20;;;;;;;12.61;67.89;94712.06;5053340;28;20521;-81
2021/10/13 06:43:22;;;;;;;22.40;13.03;;;;;;;12.47;68.03;94697.59;5053280;28;20446;-80
2021/10/13 06:45:48;;;;;;;21.00;15.17;;;;;;;12.34;68.99;94702.34;5053175;28;20445;-81
2021/10/13 06:48:15;;;;;;;17.03;12.73;;;;;;;12.06;69.03;94701.47;5053117;28;20546;-81
2021/10/13 06:50:42;;;;;;;17.63;12.50;;;;;;;11.87;69.64;94698.94;5018158;28;20442;-80
2021/10/13 06:53:09;;;;;;;21.80;14.60;;;;;;;11.86;69.88;94707.78;5053004;28;20525;-81
2021/10/13 06:55:39;;;;;;;17.93;13.20;;;;;;;12.01;70.78;94707.19;5053314;28;20577;-80
2021/10/13 06:58:05;;;;;;;17.67;12.33;;;;;;;12.19;69.21;94704.63;5053310;28;20446;-81
2021/10/13 07:00:33;;;;;;;14.83;12.33;;;;;;;12.29;68.01;94689.63;5053057;28;20849;-81
2021/10/13 07:02:59;;;;;;;22.53;13.00;;;;;;;12.44;67.86;94694.44;5052860;28;20449;-80
2021/10/13 07:05:26;;;;;;;22.13;13.73;;;;;;;12.44;67.13;94697.06;5051856;28;20473;-81
2021/10/13 07:07:53;;;;;;;14.47;10.83;;;;;;;12.40;68.64;94686.78;5034254;28;20468;-80
2021/10/13 07:10:20;;;;;;;20.20;13.20;;;;;;;12.58;68.43;94694.75;5052783;28;20922;-81
2021/10/13 07:12:49;;;;;;;17.00;11.70;;;;;;;12.65;68.07;94698.44;5052668;28;20923;-81
2021/10/13 07:15:16;;;;;;;15.80;12.47;;;;;;;12.88;68.28;94695.41;5034095;28;20434;-81
2021/10/13 07:17:43;;;;;;;20.10;13.20;;;;;;;12.96;67.29;94688.41;5034199;28;20434;-80
2021/10/13 07:20:11;;;;;;;15.47;11.33;;;;;;;13.01;66.16;94694.09;5050255;28;20532;-80
2021/10/13 07:22:39;;;;;;;15.07;13.10;;;;;;;13.11;66.41;94696.63;5034434;28;20807;-81
2021/10/13 07:25:07;;;;;;;18.30;11.40;;;;;;;13.02;65.08;94702.81;5052738;28;20442;-81
2021/10/13 07:27:35;;;;;;;15.67;11.63;;;;;;;12.97;64.57;94700.59;5052420;28;20452;-81
2021/10/13 07:30:05;;;;;;;15.47;11.90;;;;;;;12.89;64.38;94691.78;5052407;28;20471;-81
2021/10/13 07:32:34;;;;;;;20.37;12.73;;;;;;;12.75;64.50;94698.41;5052674;28;20450;-81
2021/10/13 07:35:02;;;;;;;13.70;11.37;;;;;;;12.75;64.19;94706.31;5052354;28;20450;-81
2021/10/13 07:37:29;;;;;;;17.60;10.93;;;;;;;12.58;64.07;94697.38;5052236;28;20442;-80
2021/10/13 07:39:57;;;;;;;19.23;11.80;;;;;;;12.55;65.40;94699.47;5052489;28;20452;-81
2021/10/13 07:42:24;;;;;;;13.67;10.30;;;;;;;12.46;63.85;94697.75;5052402;28;20442;-81
2021/10/13 07:44:50;;;;;;;16.80;11.50;;;;;;;12.50;64.84;94701.72;5052096;28;20443;-81
2021/10/13 07:47:19;;;;;;;18.30;11.07;;;;;;;12.48;64.05;94706.31;5052140;28;20813;-80
2021/10/13 07:49:46;;;;;;;15.00;11.17;;;;;;;12.73;65.73;94710.91;5050107;28;20447;-81
2021/10/13 07:52:13;;;;;;;15.03;10.97;;;;;;;12.94;64.04;94698.25;5051961;28;20453;-80
2021/10/13 07:54:40;;;;;;;12.70;10.57;;;;;;;13.11;62.11;94703.72;5052077;28;20448;-81
2021/10/13 07:57:06;;;;;;;15.53;10.40;;;;;;;13.20;62.19;94690.47;5051995;28;20464;-81
2021/10/13 07:59:33;;;;;;;14.17;9.57;;;;;;;13.27;62.06;94704.72;5052315;28;20790;-80
2021/10/13 08:02:00;;;;;;;13.67;10.63;;;;;;;13.21;62.08;94699.22;5051861;28;20488;-81
2021/10/13 08:04:29;;;;;;;11.73;9.73;;;;;;;13.10;61.90;94699.41;5051804;28;20452;-80
2021/10/13 08:06:55;;;;;;;14.20;11.10;;;;;;;13.08;63.57;94701.38;5052294;28;20477;-80
2021/10/13 08:09:22;;;;;;;20.90;13.67;;;;;;;12.99;64.54;94695.19;5051789;28;20445;-81
2021/10/13 08:11:50;;;;;;;18.60;12.37;;;;;;;13.16;64.40;94698.81;5033147;28;20956;-81
2021/10/13 08:14:18;;;;;;;14.33;10.70;;;;;;;13.06;63.09;94704.16;5051907;28;20473;-81
2021/10/13 08:16:45;;;;;;;14.93;11.20;;;;;;;13.09;62.81;94706.50;5054584;28;20450;-80
2021/10/13 08:19:12;;;;;;;14.10;10.37;;;;;;;13.22;63.46;94711.41;5056151;28;20540;-81
2021/10/13 08:21:40;;;;;;;27.13;11.30;;;;;;;13.37;63.41;94711.72;5055733;28;20485;-81
2021/10/13 08:24:07;;;;;;;13.70;12.07;;;;;;;13.51;64.46;94696.19;5055852;28;20938;-80
2021/10/13 08:26:34;;;;;;;20.30;14.97;;;;;;;13.69;62.68;94703.25;5020877;28;20453;-81
2021/10/13 08:29:01;;;;;;;16.10;11.67;;;;;;;13.83;61.83;94707.97;5055641;28;20449;-81
2021/10/13 08:31:28;;;;;;;18.83;10.60;;;;;;;13.79;62.18;94702.16;5055690;28;20460;-82
2021/10/13 08:33:55;;;;;;;13.20;11.80;;;;;;;13.73;60.70;94707.22;5053431;28;20440;-81
2021/10/13 08:36:22;;;;;;;15.10;10.50;;;;;;;13.69;61.36;94698.81;5055623;28;20442;-80
2021/10/13 08:38:50;;;;;;;11.83;10.37;;;;;;;13.72;61.89;94693.22;5055494;28;20945;-81
2021/10/13 08:41:17;;;;;;;14.40;11.50;;;;;;;13.47;62.10;94702.75;5055396;28;20881;-81
2021/10/13 08:43:45;;;;;;;17.67;11.70;;;;;;;13.30;62.84;94701.78;5055524;28;21029;-80
2021/10/13 08:46:12;;;;;;;16.77;11.57;;;;;;;13.17;62.88;94688.16;5055275;28;20988;-80
2021/10/13 08:48:40;;;;;;;14.83;10.63;;;;;;;13.19;62.02;94688.81;5055338;28;20446;-81
2021/10/13 08:51:07;;;;;;;17.93;11.77;;;;;;;12.98;63.70;94694.34;5055216;28;20824;-81
2021/10/13 08:53:34;;;;;;;19.50;11.10;;;;;;;12.87;65.18;94699.00;5055588;28;20440;-81
2021/10/13 08:56:03;;;;;;;15.57;11.80;;;;;;;12.97;64.37;94697.97;5053162;28;20442;-81
2021/10/13 08:58:30;;;;;;;16.20;11.40;;;;;;;13.12;64.88;94713.28;5055146;28;20953;-81
2021/10/13 09:01:13;;;;;;;14.70;11.53;;;;;;;13.32;64.63;94705.09;5055149;28;20852;-81
2021/10/13 09:03:42;;;;;;;12.37;11.00;;;;;;;13.43;64.28;94714.56;5055220;28;20500;-81
2021/10/13 09:06:18;;;;;;;14.20;10.97;;;;;;;13.45;64.36;94717.88;5054943;28;20845;-80
2021/10/13 09:08:56;;;;;;;13.03;11.27;;;;;;;13.45;62.61;94728.44;5055064;28;20434;-81
2021/10/13 09:11:40;;;;;;;26.20;12.90;;;;;;;13.32;63.08;94720.91;5055200;28;20447;-81
2021/10/13 09:14:09;;;;;;;15.13;9.87;;;;;;;13.40;63.42;94735.97;5036744;28;20994;-81
2021/10/13 09:16:47;;;;;;;12.20;9.70;;;;;;;13.49;63.05;94715.78;5054962;28;20450;-81
2021/10/13 09:19:15;;;;;;;13.10;9.77;;;;;;;13.68;63.12;94705.06;5054695;28;20933;-81
2021/10/13 09:21:50;;;;;;;19.20;12.03;;;;;;;13.64;61.49;94709.00;5054835;28;21024;-81
2021/10/13 09:24:17;;;;;;;13.13;10.37;;;;;;;13.59;62.98;94700.72;5055677;28;20941;-81
2021/10/13 09:26:45;;;;;;;19.63;10.80;;;;;;;13.51;62.01;94714.63;5054331;28;20437;-81
2021/10/13 09:29:13;;;;;;;15.13;10.60;;;;;;;13.35;63.82;94718.97;5053909;28;20952;-81
2021/10/13 09:31:40;;;;;;;15.20;10.97;;;;;;;13.38;64.71;94716.00;5055409;28;20967;-81
2021/10/13 09:34:09;;;;;;;15.27;11.03;;;;;;;13.16;63.67;94725.16;5057874;28;20477;-81
2021/10/13 09:36:38;;;;;;;15.67;10.60;;;;;;;12.94;64.38;94723.78;5052505;28;20447;-81
2021/10/13 09:39:10;;;;;;;15.70;10.63;;;;;;;12.81;65.50;94728.59;5035982;28;20436;-81
2021/10/13 09:42:02;;;;;;;13.10;10.70;;;;;;;12.74;67.43;94723.09;5054385;28;20482;-81
2021/10/13 09:44:30;;;;;;;15.60;11.40;;;;;;;12.69;67.11;94722.66;5035633;28;20453;-81
2021/10/13 09:46:59;;;;;;;16.70;10.73;;;;;;;12.62;65.52;94722.44;5054270;28;20452;-81
2021/10/13 09:49:33;;;;;;;18.40;12.43;;;;;;;12.51;66.64;94719.19;5054331;28;20449;-81
2021/10/13 09:52:11;;;;;;;14.47;11.23;;;;;;;12.52;66.88;94716.41;5054323;28;20458;-81
2021/10/13 09:54:40;;;;;;;14.07;10.77;;;;;;;12.44;67.99;94713.69;5054385;28;20443;-81
2021/10/13 09:57:24;;;;;;;14.70;9.90;;;;;;;12.47;67.59;94718.66;5054423;28;20454;-81
2021/10/13 10:00:08;;;;;;;13.77;10.10;;;;;;;12.46;66.61;94727.50;4992603;28;20449;-81
2021/10/13 10:02:37;;;;;;;18.33;12.93;;;;;;;12.45;67.25;94732.94;4992432;28;21022;-81
2021/10/13 10:05:08;;;;;;;14.90;11.57;;;;;;;12.46;67.76;94730.16;4992236;28;20473;-81
2021/10/13 10:07:41;;;;;;;15.07;10.93;;;;;;;12.40;68.09;94730.72;4992495;28;21130;-81
2021/10/13 10:10:11;;;;;;;12.27;10.93;;;;;;;12.37;68.12;94718.66;4992348;28;20448;-81
2021/10/13 10:12:59;;;;;;;17.90;11.27;;;;;;;12.44;69.26;94720.75;4992427;28;20457;-81
2021/10/13 10:15:35;;;;;;;20.67;11.10;;;;;;;12.39;68.09;94716.72;4992478;28;20460;-81
2021/10/13 10:18:03;;;;;;;15.40;11.77;;;;;;;12.30;68.45;94717.59;4992173;28;20445;-81
2021/10/13 10:20:35;;;;;;;16.10;12.07;;;;;;;12.26;67.80;94724.13;4992158;28;20456;-80
2021/10/13 10:23:02;;;;;;;23.80;13.17;;;;;;;12.23;68.37;94721.78;4992212;28;20453;-81
2021/10/13 10:25:36;;;;;;;14.97;10.47;;;;;;;12.20;68.99;94722.06;4992142;28;20448;-81
2021/10/13 10:28:04;;;;;;;15.17;11.30;;;;;;;12.16;68.79;94725.97;4992335;28;20444;-81
2021/10/13 10:30:31;;;;;;;17.77;11.60;;;;;;;12.15;69.13;94726.94;4992023;28;20453;-81
2021/10/13 10:33:23;;;;;;;16.93;11.03;;;;;;;12.18;68.62;94723.19;4991759;28;20463;-81
2021/10/13 10:35:50;;;;;;;19.30;11.23;;;;;;;12.20;68.09;94732.59;4954298;28;20490;-81
2021/10/13 10:38:19;;;;;;;18.00;12.47;;;;;;;12.20;69.27;94722.06;5011055;28;20454;-81
2021/10/13 10:40:46;;;;;;;14.90;11.93;;;;;;;12.25;68.75;94714.56;5012513;28;20550;-85
2021/10/13 10:43:28;;;;;;;19.52;13.75;;;;;;;12.30;69.70;94717.59;5011982;28;20449;-80
2021/10/13 10:45:57;;;;;;;12.80;10.27;;;;;;;12.35;68.40;94712.72;5012686;28;20777;-81
2021/10/13 10:48:25;;;;;;;15.60;9.97;;;;;;;12.32;67.44;94725.34;5012388;28;20443;-81
2021/10/13 10:51:00;;;;;;;14.90;9.90;;;;;;;12.29;68.21;94721.19;4979413;28;20444;-82
2021/10/13 10:53:32;;;;;;;11.30;8.93;;;;;;;12.27;66.33;94723.16;5012338;28;20475;-80
2021/10/13 10:56:15;;;;;;;18.27;11.60;;;;;;;12.23;66.12;94713.91;4979365;28;20539;-84
2021/10/13 10:58:58;;;;;;;14.27;10.70;;;;;;;12.21;66.49;94717.66;4934637;29;20459;-81
2021/10/13 11:01:25;;;;;;;13.13;9.97;;;;;;;12.24;67.90;94718.19;4934570;29;20494;-82
2021/10/13 11:03:52;;;;;;;24.97;12.10;;;;;;;12.28;67.48;94721.34;4934768;29;20460;-81
2021/10/13 11:06:22;;;;;;;14.07;10.10;;;;;;;12.26;67.03;94713.59;4934352;29;20482;-81
2021/10/13 11:08:58;;;;;;;12.83;9.23;;;;;;;12.26;66.95;94718.03;4934442;29;20941;-81
2021/10/13 11:11:27;;;;;;;15.10;10.20;;;;;;;12.26;67.32;94713.59;4937702;28;20511;-80
2021/10/13 11:14:01;;;;;;;13.37;10.43;;;;;;;12.28;68.26;94716.91;4939801;28;20438;-81
2021/10/13 11:16:29;;;;;;;13.20;10.40;;;;;;;12.27;68.78;94725.78;4971784;28;20898;-81
2021/10/13 11:19:06;;;;;;;18.23;11.87;;;;;;;12.34;68.71;94713.69;4971844;28;20457;-82
2021/10/13 11:21:33;;;;;;;21.93;13.50;;;;;;;12.32;67.99;94726.19;4971726;28;20481;-81
2021/10/13 11:24:00;;;;;;;18.47;12.70;;;;;;;12.35;68.16;94727.69;4971683;28;20446;-81
2021/10/13 11:26:27;;;;;;;17.37;11.10;;;;;;;12.31;67.95;94719.25;4971754;28;20446;-81
2021/10/13 11:28:54;;;;;;;16.50;11.40;;;;;;;12.33;68.00;94713.84;4971628;28;20572;-81
2021/10/13 11:31:23;;;;;;;16.33;11.10;;;;;;;12.29;67.89;94708.03;4971562;28;20817;-81
2021/10/13 11:33:50;;;;;;;17.97;11.87;;;;;;;12.29;67.21;94708.03;4971688;28;20448;-82
2021/10/13 11:36:18;;;;;;;15.00;11.13;;;;;;;12.21;66.37;94712.38;5019942;28;20446;-81
2021/10/13 11:38:45;;;;;;;14.40;9.60;;;;;;;12.07;66.03;94722.38;5052678;28;21031;-80
2021/10/13 11:41:14;;;;;;;11.30;7.90;;;;;;;11.99;65.38;94719.66;5052375;28;20450;-80
2021/10/13 11:43:42;;;;;;;12.27;8.30;;;;;;;11.89;66.13;94725.91;5052507;28;20446;-79
2021/10/13 11:46:15;;;;;;;11.03;9.20;;;;;;;11.83;65.97;94729.91;5051669;28;20446;-79
2021/10/13 11:48:43;;;;;;;10.70;8.17;;;;;;;11.75;66.91;94730.59;5052140;28;21273;-79
2021/10/13 11:51:13;;;;;;;15.60;10.40;;;;;;;11.74;66.88;94728.94;5032494;28;20430;-79
2021/10/13 11:53:40;;;;;;;16.80;10.00;;;;;;;11.71;67.73;94731.03;5053537;28;20446;-80
2021/10/13 11:56:11;;;;;;;12.63;9.93;;;;;;;11.67;68.00;94745.41;5053052;28;20452;-79
2021/10/13 11:58:39;;;;;;;14.20;9.60;;;;;;;11.69;67.98;94732.97;5052881;28;20933;-79
2021/10/13 12:01:06;;;;;;;16.93;10.40;;;;;;;11.71;68.51;94742.38;5053182;28;20480;-79
2021/10/13 12:03:35;;;;;;;14.77;10.23;;;;;;;11.73;69.93;94737.78;5053073;28;20538;-79
2021/10/13 12:06:05;;;;;;;12.20;9.63;;;;;;;11.70;67.16;94734.63;5052792;28;20503;-80
2021/10/13 12:08:35;;;;;;;12.97;10.13;;;;;;;11.67;67.17;94733.09;5053224;28;20444;-79
2021/10/13 12:11:06;;;;;;;12.47;10.47;;;;;;;11.68;68.32;94726.88;5034026;28;20442;-79
2021/10/13 12:13:35;;;;;;;13.90;9.13;;;;;;;11.63;67.00;94734.34;5034056;28;20448;-79
2021/10/13 12:16:04;;;;;;;14.77;9.80;;;;;;;11.59;68.16;94740.88;5052464;28;20535;-78
2021/10/13 12:18:35;;;;;;;16.23;10.73;;;;;;;11.57;68.05;94741.97;5017858;28;20442;-79
2021/10/13 12:21:13;;;;;;;16.63;11.53;;;;;;;11.61;67.94;94736.31;5052810;28;20454;-79
2021/10/13 12:23:44;;;;;;;15.83;11.10;;;;;;;11.59;67.61;94732.97;5052513;28;20784;-78
2021/10/13 12:26:14;;;;;;;13.33;10.40;;;;;;;11.60;68.03;94733.81;5052359;28;20446;-79
2021/10/13 12:28:41;;;;;;;13.17;9.77;;;;;;;11.63;67.96;94734.34;5052600;28;20548;-79
2021/10/13 12:31:10;;;;;;;19.70;12.20;;;;;;;11.68;68.62;94724.25;5052225;28;20450;-78
2021/10/13 12:33:46;;;;;;;22.47;11.67;;;;;;;11.68;67.49;94726.88;5051283;28;20442;-78
2021/10/13 12:36:18;;;;;;;21.60;11.97;;;;;;;11.73;69.21;94729.06;5017305;28;20464;-79
2021/10/13 12:38:49;;;;;;;19.13;11.10;;;;;;;11.73;67.08;94736.97;5052934;28;20517;-79
2021/10/13 12:41:17;;;;;;;18.40;12.70;;;;;;;11.74;68.91;94730.72;5052697;28;20446;-79
2021/10/13 12:43:46;;;;;;;21.97;14.07;;;;;;;11.83;68.69;94734.34;5052813;28;20525;-79
2021/10/13 12:46:35;;;;;;;15.73;12.03;;;;;;;11.83;67.47;94736.97;5052438;28;20525;-79
2021/10/13 12:49:13;;;;;;;13.17;10.30;;;;;;;11.82;68.06;94733.50;4990910;28;20452;-78
2021/10/13 12:51:55;;;;;;;15.40;11.63;;;;;;;11.85;67.87;94735.84;4990652;28;21068;-79
2021/10/13 12:54:22;;;;;;;18.40;11.97;;;;;;;11.93;67.84;94740.44;4990902;28;20455;-79
2021/10/13 12:56:49;;;;;;;16.37;12.50;;;;;;;11.98;66.98;94739.03;4991010;28;20453;-79
2021/10/13 12:59:17;;;;;;;17.03;10.40;;;;;;;11.99;67.30;94750.38;4991001;28;20456;-80
2021/10/13 13:01:44;;;;;;;15.03;11.33;;;;;;;12.03;66.54;94749.13;4991254;28;20523;-80
2021/10/13 13:04:11;;;;;;;16.90;10.40;;;;;;;12.10;66.55;94756.28;4994409;28;20457;-80
2021/10/13 13:06:39;;;;;;;15.30;10.60;;;;;;;12.15;65.29;94750.63;4994296;28;20492;-79
2021/10/13 13:09:08;;;;;;;14.00;11.03;;;;;;;12.13;65.77;94747.28;4994555;28;20575;-80
2021/10/13 13:11:35;;;;;;;14.23;10.40;;;;;;;12.12;65.40;94753.50;4994061;28;20456;-79
2021/10/13 13:14:02;;;;;;;15.10;11.13;;;;;;;12.08;66.02;94762.66;4994254;28;20463;-80
2021/10/13 13:16:29;;;;;;;12.50;10.23;;;;;;;12.06;65.45;94754.09;4945696;28;20455;-80
2021/10/13 13:18:56;;;;;;;15.10;10.80;;;;;;;12.03;66.08;94760.47;4994201;28;20448;-80
2021/10/13 13:21:24;;;;;;;11.20;10.00;;;;;;;11.92;64.22;94754.56;4994329;28;20449;-79
2021/10/13 13:23:51;;;;;;;14.87;11.10;;;;;;;11.97;65.28;94747.06;4993939;28;20814;-79
2021/10/13 13:26:21;;;;;;;18.63;10.63;;;;;;;12.05;66.32;94755.88;4997604;28;20448;-79
2021/10/13 13:28:48;;;;;;;19.37;12.20;;;;;;;12.06;65.58;94748.81;5055347;28;20468;-79
2021/10/13 13:31:15;;;;;;;13.93;11.40;;;;;;;12.07;65.61;94755.75;5055187;28;20442;-79
2021/10/13 13:33:43;;;;;;;23.00;14.77;;;;;;;12.12;66.30;94756.13;5054955;28;20486;-79
2021/10/13 13:36:11;;;;;;;29.73;14.83;;;;;;;12.12;66.79;94756.13;5055250;28;20438;-78
2021/10/13 13:38:38;;;;;;;20.23;13.77;;;;;;;12.18;66.31;94755.59;5055604;28;20442;-80
2021/10/13 13:41:05;;;;;;;25.07;15.80;;;;;;;12.15;65.90;94766.41;5055423;28;20441;-80
2021/10/13 13:43:33;;;;;;;18.50;13.40;;;;;;;12.17;65.26;94761.00;5055156;28;20965;-79
2021/10/13 13:46:01;;;;;;;18.30;13.67;;;;;;;12.10;65.19;94752.81;5055914;28;20452;-79
2021/10/13 13:48:29;;;;;;;31.43;19.23;;;;;;;12.10;64.87;94760.72;5055443;28;20525;-79
2021/10/13 13:50:56;;;;;;;26.83;22.73;;;;;;;12.13;65.67;94760.44;5055451;28;20454;-80
2021/10/13 13:53:23;;;;;;;17.23;12.60;;;;;;;12.17;64.63;94768.88;5036684;28;20473;-79
2021/10/13 13:55:50;;;;;;;38.03;23.03;;;;;;;12.14;65.02;94756.81;5055156;28;20458;-79
2021/10/13 13:58:17;;;;;;;22.77;17.33;;;;;;;12.18;65.46;94760.84;5055086;28;20438;-79
2021/10/13 14:00:46;;;;;;;14.73;11.77;;;;;;;12.14;63.93;94762.09;5055392;28;20930;-80
2021/10/13 14:03:13;;;;;;;15.83;11.30;;;;;;;12.14;64.82;94756.81;5055134;28;20488;-80
2021/10/13 14:05:40;;;;;;;18.30;9.43;;;;;;;12.16;63.88;94768.06;5055004;28;20492;-80
2021/10/13 14:08:08;;;;;;;14.53;10.30;;;;;;;12.11;64.28;94765.00;5055023;28;20453;-79
2021/10/13 14:10:35;;;;;;;17.23;11.80;;;;;;;12.08;64.45;94766.13;5036557;28;20800;-79
2021/10/13 14:13:03;;;;;;;20.70;11.20;;;;;;;12.07;63.95;94776.78;5054800;28;20442;-79
2021/10/13 14:15:30;;;;;;;25.60;11.13;;;;;;;12.08;63.47;94770.56;5054542;28;20442;-79
2021/10/13 14:17:59;;;;;;;21.20;11.00;;;;;;;12.02;63.85;94776.38;5054546;28;20824;-79
2021/10/13 14:20:26;;;;;;;24.43;17.10;;;;;;;12.01;63.35;94774.72;5054630;28;20526;-79
2021/10/13 14:22:53;;;;;;;40.90;22.10;;;;;;;12.02;65.04;94776.38;5054512;28;20488;-80
2021/10/13 14:25:20;;;;;;;31.50;17.47;;;;;;;12.04;64.96;94777.06;5054575;28;20944;-79
2021/10/13 14:27:48;;;;;;;33.50;21.10;;;;;;;12.08;65.41;94776.63;5054603;28;20945;-80
2021/10/13 14:30:15;;;;;;;27.90;16.57;;;;;;;12.02;66.27;94776.38;5054416;28;20455;-80
2021/10/13 14:32:43;;;;;;;18.87;14.30;;;;;;;12.00;65.21;94783.59;5054689;28;20450;-81
2021/10/13 14:35:11;;;;;;;29.87;17.67;;;;;;;11.98;64.02;94780.28;5054418;28;20457;-79
2021/10/13 14:37:38;;;;;;;19.87;13.10;;;;;;;11.91;63.52;94790.53;5054362;28;20449;-80
2021/10/13 14:40:07;;;;;;;16.10;11.60;;;;;;;11.87;63.43;94797.03;5054586;28;20461;-80
2021/10/13 14:42:34;;;;;;;22.77;16.00;;;;;;;11.79;63.52;94800.34;5054200;28;20478;-80
2021/10/13 14:45:01;;;;;;;32.17;14.53;;;;;;;11.77;64.88;94802.25;5054375;28;20473;-80
2021/10/13 14:47:28;;;;;;;29.67;20.67;;;;;;;11.70;65.79;94801.16;5054216;28;20524;-80
2021/10/13 14:49:55;;;;;;;49.20;32.03;;;;;;;11.71;64.99;94805.44;5054455;28;20438;-78
2021/10/13 14:52:23;;;;;;;29.20;22.70;;;;;;;11.77;65.90;94810.16;5054016;28;20885;-79
2021/10/13 14:54:50;;;;;;;21.77;15.80;;;;;;;11.77;65.99;94807.50;5054316;28;20446;-80
2021/10/13 14:57:17;;;;;;;21.03;13.40;;;;;;;11.76;65.95;94816.38;5054559;28;20458;-84
2021/10/13 14:59:44;;;;;;;20.80;13.37;;;;;;;11.77;66.42;94818.03;5054381;28;20876;-79
2021/10/13 15:02:11;;;;;;;28.80;17.80;;;;;;;11.82;66.58;94819.44;5018596;28;20438;-80
2021/10/13 15:04:38;;;;;;;28.53;18.53;;;;;;;11.82;66.86;94824.69;5053510;28;20469;-80
2021/10/13 15:07:05;;;;;;;29.40;18.50;;;;;;;11.81;67.65;94815.16;5053802;28;20537;-80
2021/10/13 15:09:34;;;;;;;22.07;15.07;;;;;;;11.79;67.78;94824.00;5053705;28;20446;-81
2021/10/13 15:12:01;;;;;;;17.30;13.87;;;;;;;11.74;67.37;94820.94;5035099;28;20440;-81
2021/10/13 15:14:30;;;;;;;19.53;13.40;;;;;;;11.67;68.27;94808.50;5053463;28;20531;-81
2021/10/13 15:16:56;;;;;;;21.30;14.57;;;;;;;12.47;85.19;94818.66;5053690;28;20453;-81
2021/10/13 15:19:23;;;;;;;25.57;17.27;;;;;;;12.38;67.82;94822.94;5053562;28;20448;-83
2021/10/13 15:21:51;;;;;;;24.80;16.10;;;;;;;12.32;67.47;94830.59;5053678;28;20448;-82
2021/10/13 15:24:17;;;;;;;21.20;15.23;;;;;;;12.23;66.56;94836.72;5053982;28;20536;-82
2021/10/13 15:26:46;;;;;;;17.80;13.97;;;;;;;12.15;66.33;94841.84;5034072;28;20442;-81
2021/10/13 15:29:19;;;;;;;22.33;14.60;;;;;;;12.06;65.64;94840.88;5053652;28;20921;-82
2021/10/13 15:31:47;;;;;;;20.37;15.40;;;;;;;11.99;66.01;94845.03;5053963;28;20529;-83
2021/10/13 15:34:14;;;;;;;24.93;15.30;;;;;;;11.93;65.22;94842.97;5053827;28;20450;-83
2021/10/13 15:36:43;;;;;;;35.00;19.57;;;;;;;11.87;67.44;94841.75;5053614;28;20450;-83
2021/10/13 15:39:10;;;;;;;46.30;22.43;;;;;;;11.86;67.61;94844.50;5053875;28;20444;-83
2021/10/13 15:41:38;;;;;;;20.03;15.30;;;;;;;11.81;67.27;94849.31;5015962;28;20461;-84
2021/10/13 15:44:07;;;;;;;19.03;14.10;;;;;;;11.75;66.72;94854.16;5041502;28;20490;-89
2021/10/13 15:46:34;;;;;;;18.77;14.00;;;;;;;11.64;66.97;94861.34;5044925;28;20446;-83
2021/10/13 15:49:01;;;;;;;20.83;14.80;;;;;;;11.58;67.56;94861.91;5053262;28;20438;-82
2021/10/13 15:51:29;;;;;;;33.57;18.97;;;;;;;11.60;68.96;94866.06;5053561;28;20533;-82
2021/10/13 15:53:55;;;;;;;28.03;15.97;;;;;;;11.60;68.50;94870.47;5045640;28;20459;-81
2021/10/13 15:56:22;;;;;;;28.37;18.70;;;;;;;11.60;68.25;94863.41;5042232;28;20454;-81
2021/10/13 15:58:49;;;;;;;42.50;25.17;;;;;;;11.64;69.35;94864.81;5053363;28;20457;-82
2021/10/13 16:01:18;;;;;;;44.27;24.37;;;;;;;11.71;70.31;94871.16;5052970;28;20450;-82
2021/10/13 16:03:45;;;;;;;41.57;27.03;;;;;;;11.74;69.54;94881.41;5052767;28;20504;-82
2021/10/13 16:06:12;;;;;;;46.20;27.13;;;;;;;11.74;70.04;94881.41;5043859;28;20471;-81
2021/10/13 16:08:40;;;;;;;35.90;22.30;;;;;;;11.71;69.27;94886.94;5032575;28;20445;-81
2021/10/13 16:11:08;;;;;;;43.43;25.87;;;;;;;11.72;70.09;94885.97;5032901;28;20451;-81
2021/10/13 16:13:36;;;;;;;47.23;30.40;;;;;;;11.69;70.48;94888.03;5033038;28;20455;-81
2021/10/13 16:16:03;;;;;;;54.93;32.10;;;;;;;11.65;70.51;94890.13;5033043;28;20478;-82
2021/10/13 16:18:32;;;;;;;33.23;22.23;;;;;;;11.62;70.70;94895.66;5032704;28;20530;-81
2021/10/13 16:20:59;;;;;;;45.00;29.07;;;;;;;11.58;70.41;94899.53;5032770;28;20443;-81
2021/10/13 16:23:26;;;;;;;36.13;25.00;;;;;;;11.58;71.38;94904.78;5032971;28;20486;-82
2021/10/13 16:25:53;;;;;;;44.83;27.70;;;;;;;11.60;71.76;94905.47;5032979;28;20455;-89
2021/10/13 16:28:20;;;;;;;46.15;30.27;;;;;;;11.72;72.44;94909.63;5031775;28;20967;-83
2021/10/13 16:30:47;;;;;;;46.33;28.10;;;;;;;11.84;71.63;94914.78;5033223;28;20215;-85
2021/10/13 16:33:14;;;;;;;39.87;26.87;;;;;;;11.92;72.84;94917.56;5033506;28;20453;-84
2021/10/13 16:35:43;;;;;;;39.83;22.27;;;;;;;11.96;73.46;94919.78;5033130;28;20994;-84
2021/10/13 16:38:10;;;;;;;38.03;20.80;;;;;;;11.96;73.78;94925.03;5036441;28;20431;-84
2021/10/13 16:40:37;;;;;;;31.87;22.50;;;;;;;11.96;73.74;94927.69;5037257;28;20525;-84
2021/10/13 16:43:04;;;;;;;38.87;23.57;;;;;;;11.98;72.90;94925.75;5036867;28;20493;-85
2021/10/13 16:45:31;;;;;;;40.73;24.37;;;;;;;11.97;73.41;94926.72;5018406;28;20450;-84